Time;durP1;ratioP1;P1;durP2;ratioP2;P2;SDS_P1;SDS_P2;PMS_P1;PMS_P2;Temp;Humidity;BMP_temperature;BMP_pressure;BME280_temperature;BME280_humidity;BME280_pressure;Samples;Min_cycle;Max_cycle;Signal;HPM_P1;HPM_P2
2023/02/04 00:01:30;;;;;;;19.53;9.23;;;8.00;99.90;;;;;;5002531;28;21019;-83
2023/02/04 00:03:57;;;;;;;24.40;15.00;;;8.00;99.90;;;;;;4984444;28;20454;-82
2023/02/04 00:06:24;;;;;;;21.53;14.57;;;8.00;99.90;;;;;;4982738;28;20454;-82
2023/02/04 00:08:51;;;;;;;23.77;13.63;;;8.00;99.90;;;;;;4982764;28;20471;-83
2023/02/04 00:11:19;;;;;;;19.27;13.50;;;7.90;99.90;;;;;;4983158;28;20474;-82
2023/02/04 00:13:46;;;;;;;29.93;15.23;;;7.90;99.90;;;;;;4982601;28;20454;-83
2023/02/04 00:16:12;;;;;;;19.00;15.83;;;7.90;99.90;;;;;;4983095;28;20482;-82
2023/02/04 00:18:39;;;;;;;21.20;17.00;;;7.90;99.90;;;;;;4995704;28;20474;-82
2023/02/04 00:21:06;;;;;;;21.27;16.57;;;7.90;99.90;;;;;;5001863;28;20485;-82
2023/02/04 00:23:33;;;;;;;15.03;11.13;;;7.80;99.90;;;;;;5001395;28;20450;-82
2023/02/04 00:26:00;;;;;;;22.43;13.60;;;7.90;99.90;;;;;;5001587;28;20449;-82
2023/02/04 00:28:28;;;;;;;18.47;10.70;;;7.90;99.90;;;;;;5001965;28;20478;-83
2023/02/04 00:30:54;;;;;;;20.13;11.10;;;7.80;99.90;;;;;;5002407;28;20449;-82
2023/02/04 00:33:21;;;;;;;14.60;9.10;;;7.80;99.90;;;;;;5000820;28;20988;-83
2023/02/04 00:35:48;;;;;;;14.67;7.73;;;7.80;99.90;;;;;;5001711;28;20465;-83
2023/02/04 00:38:15;;;;;;;38.30;10.50;;;7.80;99.90;;;;;;5001012;28;21003;-83
2023/02/04 00:40:41;;;;;;;14.43;8.03;;;7.80;99.90;;;;;;5001790;28;20482;-83
2023/02/04 00:43:08;;;;;;;11.20;9.40;;;7.80;99.90;;;;;;4985497;28;20454;-82
2023/02/04 00:45:36;;;;;;;11.30;7.50;;;7.80;99.90;;;;;;4982876;28;20830;-83
2023/02/04 00:48:03;;;;;;;20.10;7.00;;;7.80;99.90;;;;;;4982504;28;20474;-83
2023/02/04 00:50:30;;;;;;;27.90;8.70;;;7.80;99.90;;;;;;4982608;28;20455;-83
2023/02/04 00:53:00;;;;;;;13.30;8.40;;;7.70;99.90;;;;;;4982097;28;20462;-83
2023/02/04 00:55:27;;;;;;;17.63;10.27;;;7.80;99.90;;;;;;4982500;28;20531;-83
2023/02/04 00:57:54;;;;;;;23.43;10.80;;;7.70;99.90;;;;;;4982283;28;20478;-83
2023/02/04 01:00:21;;;;;;;28.67;9.20;;;7.70;99.90;;;;;;4982158;28;20473;-83
2023/02/04 01:02:49;;;;;;;24.50;16.80;;;7.70;99.90;;;;;;4981698;28;20490;-83
2023/02/04 01:05:15;;;;;;;25.10;19.90;;;7.70;99.90;;;;;;4982448;28;20836;-82
2023/02/04 01:07:42;;;;;;;22.60;19.00;;;7.70;99.90;;;;;;5000584;28;20469;-82
2023/02/04 01:10:10;;;;;;;23.70;19.67;;;7.70;99.90;;;;;;5001391;28;20464;-83
2023/02/04 01:12:37;;;;;;;27.37;17.63;;;7.60;99.90;;;;;;5000857;28;20956;-81
2023/02/04 01:15:04;;;;;;;27.73;18.80;;;7.60;99.90;;;;;;5001602;28;20454;-83
2023/02/04 01:17:31;;;;;;;20.43;18.40;;;7.60;99.90;;;;;;5000991;28;20458;-83
2023/02/04 01:19:59;;;;;;;25.60;19.30;;;7.60;99.90;;;;;;5001258;28;20458;-83
2023/02/04 01:22:26;;;;;;;41.10;32.30;;;7.50;99.90;;;;;;5000481;28;20485;-83
2023/02/04 01:24:53;;;;;;;54.30;50.13;;;7.50;99.90;;;;;;5001497;28;20835;-83
2023/02/04 01:27:19;;;;;;;50.40;46.80;;;7.40;99.90;;;;;;5001487;28;20450;-83
2023/02/04 01:29:46;;;;;;;53.93;50.70;;;7.50;99.90;;;;;;4999864;28;20454;-83
2023/02/04 01:32:13;;;;;;;49.27;46.10;;;7.40;99.90;;;;;;4985547;28;20457;-83
2023/02/04 01:34:40;;;;;;;57.97;53.57;;;7.50;99.90;;;;;;4981340;28;20486;-83
2023/02/04 01:37:08;;;;;;;50.00;46.67;;;7.40;99.90;;;;;;4981585;28;20453;-84
2023/02/04 01:39:35;;;;;;;69.07;65.40;;;7.40;99.90;;;;;;4981531;28;20475;-83
2023/02/04 01:42:03;;;;;;;55.50;52.57;;;7.40;99.90;;;;;;4991162;28;20473;-83
2023/02/04 01:44:30;;;;;;;70.63;65.73;;;7.40;99.90;;;;;;5000817;28;20493;-82
2023/02/04 01:46:56;;;;;;;76.87;71.77;;;7.40;99.90;;;;;;4999745;28;20544;-83
2023/02/04 01:49:23;;;;;;;76.03;71.20;;;7.40;99.90;;;;;;5001127;28;20997;-83
2023/02/04 01:51:51;;;;;;;40.07;37.97;;;7.40;99.90;;;;;;4999564;28;20839;-83
2023/02/04 01:54:20;;;;;;;74.23;70.33;;;7.40;99.90;;;;;;5000598;28;20454;-83
2023/02/04 01:56:50;;;;;;;56.10;52.70;;;7.40;99.90;;;;;;5000141;28;20798;-83
2023/02/04 01:59:18;;;;;;;73.80;70.07;;;7.40;99.90;;;;;;5001151;28;20862;-82
2023/02/04 02:01:47;;;;;;;85.70;80.57;;;7.40;99.90;;;;;;5000207;28;20466;-82
2023/02/04 02:04:16;;;;;;;118.17;112.47;;;7.30;99.90;;;;;;5000656;28;20453;-84
2023/02/04 02:06:46;;;;;;;109.40;104.27;;;7.40;99.90;;;;;;4996784;28;20457;-83
2023/02/04 02:09:13;;;;;;;132.00;126.27;;;7.30;99.90;;;;;;5000399;28;20489;-83
2023/02/04 02:11:42;;;;;;;131.23;125.40;;;7.30;99.90;;;;;;4991065;28;20450;-83
2023/02/04 02:14:08;;;;;;;148.60;141.87;;;7.30;99.90;;;;;;4980532;28;21028;-83
2023/02/04 02:16:35;;;;;;;157.10;150.57;;;7.30;99.90;;;;;;4981258;28;20538;-83
2023/02/04 02:19:02;;;;;;;177.87;171.33;;;7.30;99.90;;;;;;4980984;28;20474;-83
2023/02/04 02:21:37;;;;;;;172.03;165.23;;;7.30;99.90;;;;;;4980469;28;20475;-83
2023/02/04 02:24:27;;;;;;;208.03;200.63;;;7.20;99.90;;;;;;4980672;28;20455;-82
2023/02/04 02:26:55;;;;;;;139.50;133.97;;;7.30;99.90;;;;;;4981273;28;20989;-83
2023/02/04 02:29:23;;;;;;;152.60;146.67;;;7.30;99.90;;;;;;4980746;28;20475;-82
2023/02/04 02:31:50;;;;;;;219.13;211.47;;;7.30;99.90;;;;;;4987606;28;20530;-83
2023/02/04 02:34:17;;;;;;;206.33;198.90;;;7.30;99.90;;;;;;4999730;28;20454;-83
2023/02/04 02:36:44;;;;;;;210.90;202.70;;;7.30;99.90;;;;;;4992094;28;20451;-83
2023/02/04 02:39:12;;;;;;;209.67;200.30;;;7.30;99.90;;;;;;4980275;28;20866;-83
2023/02/04 02:41:39;;;;;;;234.57;226.37;;;7.30;99.90;;;;;;4980934;28;20858;-82
2023/02/04 02:44:06;;;;;;;249.17;239.47;;;7.30;99.90;;;;;;4979647;28;20451;-83
2023/02/04 02:46:33;;;;;;;254.13;245.37;;;7.20;99.90;;;;;;4980680;28;20462;-82
2023/02/04 02:49:00;;;;;;;256.33;246.83;;;7.30;99.90;;;;;;4984411;28;20495;-83
2023/02/04 02:51:28;;;;;;;268.60;259.10;;;7.30;99.90;;;;;;4999730;28;20450;-83
2023/02/04 02:53:54;;;;;;;183.27;175.57;;;7.20;99.90;;;;;;4996927;28;20801;-82
2023/02/04 02:56:22;;;;;;;241.90;232.87;;;7.30;99.90;;;;;;4980251;28;20943;-83
2023/02/04 02:58:49;;;;;;;247.93;238.77;;;7.30;99.90;;;;;;4981321;28;20475;-82
2023/02/04 03:01:16;;;;;;;265.80;256.73;;;7.30;99.90;;;;;;4988166;28;20466;-83
2023/02/04 03:03:46;;;;;;;267.47;257.57;;;7.20;99.90;;;;;;4999097;28;20458;-83
2023/02/04 03:06:15;;;;;;;275.07;265.87;;;7.30;99.90;;;;;;4999585;28;20466;-83
2023/02/04 03:08:43;;;;;;;291.27;281.17;;;7.20;99.90;;;;;;4979987;28;20852;-83
2023/02/04 03:11:10;;;;;;;307.70;297.20;;;7.30;99.90;;;;;;4979334;28;20980;-82
2023/02/04 03:13:39;;;;;;;293.30;281.07;;;7.20;99.90;;;;;;4979587;28;20455;-83
2023/02/04 03:16:07;;;;;;;282.33;272.20;;;7.30;99.90;;;;;;4993029;28;20450;-83
2023/02/04 03:18:36;;;;;;;312.90;300.90;;;7.20;99.90;;;;;;4998931;28;20478;-82
2023/02/04 03:21:05;;;;;;;332.80;321.37;;;7.20;99.90;;;;;;4986309;28;20455;-84
2023/02/04 03:23:33;;;;;;;365.80;352.97;;;7.20;99.90;;;;;;4979286;28;20483;-82
2023/02/04 03:26:00;;;;;;;365.70;353.67;;;7.10;99.90;;;;;;4980061;28;20494;-83
2023/02/04 03:28:27;;;;;;;356.77;343.50;;;7.10;99.90;;;;;;4979408;28;20471;-83
2023/02/04 03:30:55;;;;;;;339.37;326.67;;;7.10;99.90;;;;;;4989518;28;20454;-82
2023/02/04 03:33:23;;;;;;;311.60;300.73;;;7.10;99.90;;;;;;4997791;28;20450;-83
2023/02/04 03:35:50;;;;;;;326.67;315.40;;;7.00;99.90;;;;;;4997287;28;20482;-82
2023/02/04 03:38:17;;;;;;;371.87;359.50;;;7.10;99.90;;;;;;4998599;28;20482;-82
2023/02/04 03:40:44;;;;;;;415.57;401.00;;;7.10;99.90;;;;;;4992022;28;20455;-82
2023/02/04 03:43:10;;;;;;;450.17;434.47;;;7.00;99.90;;;;;;4978255;28;20478;-83
2023/02/04 03:45:37;;;;;;;474.10;456.93;;;7.00;99.90;;;;;;4979150;28;20451;-82
2023/02/04 03:48:05;;;;;;;470.03;452.97;;;6.90;99.90;;;;;;4979252;28;20997;-82
2023/02/04 03:50:32;;;;;;;501.23;483.13;;;6.90;99.90;;;;;;4985021;28;20481;-84
2023/02/04 03:52:59;;;;;;;545.77;525.37;;;6.80;99.90;;;;;;4999260;28;20521;-83
2023/02/04 03:55:26;;;;;;;591.20;568.03;;;6.80;99.90;;;;;;4994361;28;20454;-83
2023/02/04 03:57:53;;;;;;;593.77;570.93;;;6.80;99.90;;;;;;4978961;28;20478;-83
2023/02/04 04:00:20;;;;;;;660.67;632.30;;;6.80;99.90;;;;;;4979613;28;20463;-83
2023/02/04 04:02:47;;;;;;;669.77;640.57;;;6.60;99.90;;;;;;4978490;28;21017;-83
2023/02/04 04:05:15;;;;;;;717.13;684.30;;;6.60;99.90;;;;;;4979834;28;20454;-83
2023/02/04 04:07:42;;;;;;;743.13;704.77;;;6.60;99.90;;;;;;4979366;28;20520;-83
2023/02/04 04:10:09;;;;;;;762.07;721.07;;;6.50;99.90;;;;;;4979979;28;20462;-84
2023/02/04 04:12:36;;;;;;;777.77;734.83;;;6.50;99.90;;;;;;4979400;28;20465;-82
2023/02/04 04:15:03;;;;;;;791.00;745.90;;;6.50;99.90;;;;;;4979499;28;20451;-84
2023/02/04 04:17:30;;;;;;;763.17;723.57;;;6.40;99.90;;;;;;4981406;28;20454;-83
2023/02/04 04:19:57;;;;;;;779.67;735.37;;;6.40;99.90;;;;;;4992885;28;20459;-82
2023/02/04 04:22:25;;;;;;;801.20;754.10;;;6.30;99.90;;;;;;4985937;28;20470;-83
2023/02/04 04:24:52;;;;;;;812.43;762.70;;;6.30;99.90;;;;;;4983900;28;20454;-83
2023/02/04 04:27:21;;;;;;;819.63;769.77;;;6.30;99.90;;;;;;4996170;28;20461;-82
2023/02/04 04:29:47;;;;;;;830.37;777.77;;;6.20;99.90;;;;;;4997545;28;20965;-82
2023/02/04 04:32:14;;;;;;;831.77;779.30;;;6.20;99.90;;;;;;4986969;28;20987;-84
2023/02/04 04:34:41;;;;;;;829.00;776.27;;;6.10;99.90;;;;;;4983985;28;20454;-82
2023/02/04 04:37:08;;;;;;;829.90;774.40;;;6.10;99.90;;;;;;4997453;28;20460;-82
2023/02/04 04:39:36;;;;;;;840.87;782.13;;;6.10;99.90;;;;;;4997477;28;20828;-82
2023/02/04 04:42:02;;;;;;;839.33;778.47;;;6.20;99.90;;;;;;4997851;28;20474;-82
2023/02/04 04:44:29;;;;;;;840.50;781.23;;;6.10;99.90;;;;;;4995248;28;20446;-83
2023/02/04 04:46:56;;;;;;;839.27;779.20;;;6.10;99.90;;;;;;4992646;28;20446;-83
2023/02/04 04:49:23;;;;;;;853.60;792.17;;;6.10;99.90;;;;;;5001837;28;20856;-83
2023/02/04 04:51:49;;;;;;;852.93;791.07;;;6.20;99.90;;;;;;5002802;28;20450;-83
2023/02/04 04:54:16;;;;;;;846.60;783.20;;;6.10;99.90;;;;;;5001825;28;20450;-82
2023/02/04 04:56:44;;;;;;;841.37;778.67;;;6.10;99.90;;;;;;5001796;28;20460;-83
2023/02/04 04:59:11;;;;;;;833.70;772.10;;;6.10;99.90;;;;;;5001342;28;20470;-82
2023/02/04 05:01:38;;;;;;;828.17;766.70;;;6.00;99.90;;;;;;5001965;28;20464;-82
2023/02/04 05:04:05;;;;;;;832.40;771.27;;;6.00;99.90;;;;;;5001262;28;21111;-83
2023/02/04 05:06:31;;;;;;;824.60;763.70;;;6.00;99.90;;;;;;5001849;28;20844;-83
2023/02/04 05:08:58;;;;;;;827.93;762.23;;;6.00;99.90;;;;;;5000645;28;20485;-83
2023/02/04 05:11:25;;;;;;;825.03;760.60;;;6.00;99.90;;;;;;5000415;28;20461;-83
2023/02/04 05:13:53;;;;;;;817.60;755.20;;;6.00;99.90;;;;;;5005390;28;20446;-82
2023/02/04 05:16:20;;;;;;;817.43;755.17;;;5.90;99.90;;;;;;5002843;28;20449;-83
2023/02/04 05:18:46;;;;;;;821.20;755.70;;;5.90;99.90;;;;;;5001168;28;20470;-82
2023/02/04 05:21:13;;;;;;;824.40;759.70;;;5.80;99.90;;;;;;5000725;28;20457;-83
2023/02/04 05:23:40;;;;;;;824.43;759.83;;;5.70;99.90;;;;;;5000488;28;20481;-83
2023/02/04 05:26:07;;;;;;;816.10;751.60;;;5.70;99.90;;;;;;5001008;28;20458;-83
2023/02/04 05:28:33;;;;;;;821.40;755.37;;;5.60;99.90;;;;;;5000933;28;20481;-83
2023/02/04 05:31:01;;;;;;;813.50;746.47;;;5.60;99.90;;;;;;5001257;28;20461;-82
2023/02/04 05:33:28;;;;;;;829.50;762.47;;;5.50;99.90;;;;;;5002137;28;20838;-83
2023/02/04 05:35:55;;;;;;;811.53;745.37;;;5.30;99.90;;;;;;5008298;28;20539;-84
2023/02/04 05:38:22;;;;;;;826.53;759.40;;;5.30;99.90;;;;;;5001595;28;20481;-83
2023/02/04 05:40:48;;;;;;;819.60;752.17;;;5.30;99.90;;;;;;4988840;28;20450;-83
2023/02/04 05:43:15;;;;;;;811.10;744.80;;;5.20;99.90;;;;;;4998491;28;20480;-83
2023/02/04 05:45:42;;;;;;;808.93;741.60;;;5.10;99.90;;;;;;4991579;28;20477;-83
2023/02/04 05:48:10;;;;;;;821.93;752.57;;;5.10;99.90;;;;;;4989476;28;20477;-83
2023/02/04 05:50:36;;;;;;;801.57;733.83;;;5.10;99.90;;;;;;4983816;28;20487;-83
2023/02/04 05:53:03;;;;;;;789.77;720.57;;;5.10;99.90;;;;;;4994714;28;20489;-83
2023/02/04 05:55:30;;;;;;;797.27;725.57;;;5.20;99.90;;;;;;4991298;28;20458;-84
2023/02/04 05:57:57;;;;;;;799.27;728.00;;;5.20;99.90;;;;;;4999826;28;20473;-83
2023/02/04 06:00:24;;;;;;;792.30;722.03;;;5.10;99.90;;;;;;5000685;28;20453;-82
2023/02/04 06:02:50;;;;;;;802.00;729.43;;;5.20;99.90;;;;;;4998844;28;20474;-84
2023/02/04 06:05:19;;;;;;;799.17;728.20;;;5.20;99.90;;;;;;4985364;28;20455;-83
2023/02/04 06:07:45;;;;;;;799.30;729.00;;;5.20;99.90;;;;;;4985233;28;20481;-83
2023/02/04 06:10:12;;;;;;;798.30;724.40;;;5.20;99.90;;;;;;4998694;28;20461;-83
2023/02/04 06:12:39;;;;;;;784.63;710.07;;;5.30;99.90;;;;;;5000800;28;20449;-83
2023/02/04 06:15:07;;;;;;;779.50;705.87;;;5.40;99.90;;;;;;4996288;28;20463;-83
2023/02/04 06:17:33;;;;;;;763.53;690.83;;;5.50;99.90;;;;;;4983853;28;20504;-83
2023/02/04 06:20:00;;;;;;;759.93;686.60;;;5.60;99.90;;;;;;4988816;28;21104;-83
2023/02/04 06:22:28;;;;;;;762.20;690.93;;;5.60;99.90;;;;;;4995900;28;20470;-84
2023/02/04 06:24:55;;;;;;;779.73;702.93;;;5.70;99.90;;;;;;5000744;28;20457;-83
2023/02/04 06:27:23;;;;;;;768.60;691.63;;;5.80;99.90;;;;;;4985536;28;20461;-82
2023/02/04 06:29:50;;;;;;;765.40;691.20;;;5.80;99.90;;;;;;4994833;28;20880;-83
2023/02/04 06:32:17;;;;;;;766.37;690.67;;;5.80;99.90;;;;;;4984490;28;20451;-82
2023/02/04 06:34:43;;;;;;;765.10;688.73;;;5.90;99.90;;;;;;4998349;28;21462;-82
2023/02/04 06:37:10;;;;;;;767.53;689.37;;;5.80;99.90;;;;;;4997577;28;20465;-82
2023/02/04 06:39:39;;;;;;;767.60;691.80;;;5.80;99.90;;;;;;4993346;28;20477;-83
2023/02/04 06:42:05;;;;;;;763.97;689.53;;;5.80;99.90;;;;;;4990749;28;20455;-82
2023/02/04 06:44:32;;;;;;;764.27;688.33;;;5.70;99.90;;;;;;4986054;28;21011;-82
2023/02/04 06:46:59;;;;;;;761.80;686.90;;;5.70;99.90;;;;;;4980599;28;20451;-82
2023/02/04 06:49:26;;;;;;;768.47;693.20;;;5.80;99.90;;;;;;4995542;28;20496;-83
2023/02/04 06:51:54;;;;;;;775.00;700.70;;;5.70;99.90;;;;;;5000139;28;20461;-83
2023/02/04 06:54:20;;;;;;;780.33;705.73;;;5.70;99.90;;;;;;5000416;28;20504;-82
2023/02/04 06:56:49;;;;;;;775.53;702.93;;;5.70;99.90;;;;;;5000888;28;20462;-82
2023/02/04 06:59:15;;;;;;;775.53;702.50;;;5.70;99.90;;;;;;4984850;28;20478;-82
2023/02/04 07:01:42;;;;;;;771.50;699.20;;;5.80;99.90;;;;;;4991836;28;20450;-82
2023/02/04 07:04:09;;;;;;;774.47;702.43;;;5.80;99.90;;;;;;4999721;28;20485;-82
2023/02/04 07:06:35;;;;;;;760.10;688.83;;;5.80;99.90;;;;;;5000452;28;20458;-82
2023/02/04 07:09:02;;;;;;;766.60;694.60;;;5.80;99.90;;;;;;4998383;28;20474;-82
2023/02/04 07:11:29;;;;;;;769.70;696.30;;;5.80;99.90;;;;;;4999084;28;20454;-82
2023/02/04 07:13:57;;;;;;;769.37;695.10;;;5.80;99.90;;;;;;5000209;28;20442;-82
2023/02/04 07:16:24;;;;;;;759.10;686.60;;;5.80;99.90;;;;;;4999334;28;20462;-82
2023/02/04 07:18:50;;;;;;;757.43;684.50;;;5.80;99.90;;;;;;4999533;28;20474;-82
2023/02/04 07:21:17;;;;;;;772.47;698.53;;;5.80;99.90;;;;;;5000302;28;20457;-82
2023/02/04 07:23:46;;;;;;;764.50;691.47;;;5.80;99.90;;;;;;4999440;28;20477;-82
2023/02/04 07:26:13;;;;;;;760.73;688.23;;;5.90;99.90;;;;;;5000029;28;20509;-82
2023/02/04 07:28:41;;;;;;;762.10;691.53;;;6.00;99.90;;;;;;4999810;28;20477;-83
2023/02/04 07:31:09;;;;;;;774.67;701.47;;;6.00;99.90;;;;;;4999733;28;20450;-82
2023/02/04 07:33:36;;;;;;;766.23;696.10;;;6.10;99.90;;;;;;4998701;28;20813;-82
2023/02/04 07:36:03;;;;;;;762.50;692.30;;;6.10;99.90;;;;;;4999890;28;20461;-83
2023/02/04 07:38:30;;;;;;;760.63;692.20;;;6.20;99.90;;;;;;4999223;28;20505;-83
2023/02/04 07:40:57;;;;;;;765.50;696.77;;;6.20;99.90;;;;;;4999410;28;20461;-83
2023/02/04 07:43:24;;;;;;;771.43;701.70;;;6.20;99.90;;;;;;4994359;28;20503;-82
2023/02/04 07:45:51;;;;;;;766.13;697.03;;;6.30;99.90;;;;;;4980494;28;20874;-82
2023/02/04 07:48:19;;;;;;;761.37;694.20;;;6.40;99.90;;;;;;4979873;28;20486;-82
2023/02/04 07:50:52;;;;;;;763.43;696.67;;;6.40;99.90;;;;;;4980965;28;20519;-84
2023/02/04 07:53:19;;;;;;;766.33;701.17;;;6.40;99.90;;;;;;4980806;28;20459;-83
2023/02/04 07:55:46;;;;;;;768.63;704.47;;;6.50;99.90;;;;;;4981435;28;20981;-82
2023/02/04 07:58:12;;;;;;;771.20;708.43;;;6.50;99.90;;;;;;4999188;28;20484;-82
2023/02/04 08:00:39;;;;;;;774.90;713.63;;;6.60;99.90;;;;;;4983300;28;20551;-82
2023/02/04 08:03:06;;;;;;;772.17;711.93;;;6.60;99.90;;;;;;4979974;28;20575;-83
2023/02/04 08:05:34;;;;;;;760.43;700.83;;;6.70;99.90;;;;;;4988956;28;20450;-83
2023/02/04 08:08:01;;;;;;;755.47;697.27;;;6.60;99.90;;;;;;4998681;28;20501;-82
2023/02/04 08:10:28;;;;;;;756.97;698.87;;;6.70;99.90;;;;;;4987998;28;20529;-81
2023/02/04 08:12:55;;;;;;;753.30;698.17;;;6.80;99.90;;;;;;4979786;28;20546;-83
2023/02/04 08:15:22;;;;;;;751.67;696.43;;;6.80;99.90;;;;;;4981583;28;20522;-82
2023/02/04 08:17:48;;;;;;;738.30;684.80;;;6.90;99.90;;;;;;4981317;28;20478;-81
2023/02/04 08:20:17;;;;;;;742.17;689.30;;;6.90;99.90;;;;;;4982985;28;20463;-82
2023/02/04 08:22:45;;;;;;;720.80;672.07;;;7.00;99.90;;;;;;4994470;28;20545;-84
2023/02/04 08:25:23;;;;;;;699.03;653.80;;;7.10;99.90;;;;;;5004344;28;20871;-83
2023/02/04 08:27:54;;;;;;;685.53;643.30;;;7.20;99.90;;;;;;4992240;28;20501;-85
2023/02/04 08:30:28;;;;;;;669.93;630.80;;;7.20;99.90;;;;;;4983298;28;20459;-85
2023/02/04 08:33:01;;;;;;;655.37;617.47;;;7.20;99.90;;;;;;4987253;28;20871;-84
2023/02/04 08:35:39;;;;;;;652.43;615.50;;;7.30;99.90;;;;;;4988697;28;20482;-85
2023/02/04 08:38:11;;;;;;;649.43;615.63;;;7.30;99.90;;;;;;4988301;28;20479;-86
2023/02/04 08:40:38;;;;;;;621.90;591.63;;;7.30;99.90;;;;;;4994011;28;20509;-83
2023/02/04 08:43:06;;;;;;;598.03;569.43;;;7.40;99.90;;;;;;4995255;28;20454;-83
2023/02/04 08:45:33;;;;;;;591.20;563.70;;;7.50;99.90;;;;;;5007329;28;20458;-85
2023/02/04 08:48:06;;;;;;;568.83;542.33;;;7.50;99.90;;;;;;5004865;28;20520;-85
2023/02/04 08:50:46;;;;;;;529.73;505.33;;;7.60;99.90;;;;;;4991051;28;20455;-86
2023/02/04 08:53:19;;;;;;;500.70;479.80;;;7.60;99.90;;;;;;4999320;28;20450;-84
2023/02/04 08:55:46;;;;;;;386.70;371.43;;;7.70;99.90;;;;;;5005376;28;20538;-86
2023/02/04 08:58:13;;;;;;;378.20;364.13;;;7.70;99.90;;;;;;5005365;28;20473;-85
2023/02/04 09:00:40;;;;;;;300.27;289.40;;;7.80;99.90;;;;;;5000780;28;20518;-85
2023/02/04 09:03:07;;;;;;;364.97;350.57;;;7.80;99.90;;;;;;4990853;28;20535;-85
2023/02/04 09:05:33;;;;;;;285.70;273.93;;;8.00;99.90;;;;;;4988730;28;20482;-84
2023/02/04 09:08:00;;;;;;;233.50;223.20;;;8.10;99.90;;;;;;4987843;28;20558;-84
2023/02/04 09:10:34;;;;;;;129.97;122.30;;;8.10;99.90;;;;;;4993196;28;20493;-85
2023/02/04 09:13:02;;;;;;;148.53;141.63;;;8.00;99.90;;;;;;5008580;28;20510;-86
2023/02/04 09:15:29;;;;;;;120.80;114.03;;;8.10;99.90;;;;;;5004301;28;20957;-84
2023/02/04 09:18:03;;;;;;;139.27;132.13;;;8.30;99.90;;;;;;5001499;28;21041;-82
2023/02/04 09:20:30;;;;;;;96.13;90.50;;;8.30;99.90;;;;;;5000778;28;20457;-82
2023/02/04 09:22:57;;;;;;;81.77;76.27;;;8.20;99.90;;;;;;5001737;28;20465;-80
2023/02/04 09:25:24;;;;;;;80.77;75.40;;;8.30;99.90;;;;;;4993644;28;20520;-83
2023/02/04 09:27:52;;;;;;;74.70;70.23;;;8.30;99.90;;;;;;4985261;28;20485;-82
2023/02/04 09:30:19;;;;;;;63.80;59.20;;;8.30;99.90;;;;;;4983839;28;20454;-86
2023/02/04 09:32:46;;;;;;;72.60;66.90;;;8.30;99.90;;;;;;4983617;28;20455;-83
2023/02/04 09:35:15;;;;;;;57.57;53.30;;;8.40;99.90;;;;;;4991199;28;20450;-83
2023/02/04 09:37:42;;;;;;;80.37;76.13;;;8.40;99.90;;;;;;5003926;28;20462;-84
2023/02/04 09:40:15;;;;;;;67.63;62.53;;;8.40;99.90;;;;;;4997645;28;20455;-83
2023/02/04 09:42:43;;;;;;;103.23;97.60;;;8.50;99.90;;;;;;4987440;28;20459;-83
2023/02/04 09:45:16;;;;;;;39.37;35.97;;;8.60;99.90;;;;;;4983450;28;20480;-83
2023/02/04 09:47:44;;;;;;;46.77;42.70;;;8.50;99.90;;;;;;4985918;28;20474;-83
2023/02/04 09:50:23;;;;;;;40.27;30.30;;;8.60;99.90;;;;;;5000546;28;20458;-84
2023/02/04 09:52:51;;;;;;;33.57;30.20;;;8.60;99.90;;;;;;4999115;28;20450;-83
2023/02/04 09:55:34;;;;;;;40.73;32.80;;;8.70;99.90;;;;;;5000311;28;20509;-84
2023/02/04 09:58:12;;;;;;;29.23;19.10;;;8.80;99.90;;;;;;4996252;28;20538;-84
2023/02/04 10:00:49;;;;;;;25.67;17.53;;;8.70;99.90;;;;;;5005554;28;20472;-84
2023/02/04 10:03:17;;;;;;;32.87;19.43;;;8.80;99.90;;;;;;5003017;28;20452;-81
2023/02/04 10:05:45;;;;;;;39.00;19.10;;;8.90;99.90;;;;;;4997779;28;20525;-82
2023/02/04 10:08:36;;;;;;;37.03;12.13;;;8.90;99.90;;;;;;5052471;23;20480;-85
2023/02/04 10:11:08;;;;;;;30.10;11.50;;;8.90;99.90;;;;;;5023659;28;20461;-85
2023/02/04 10:13:46;;;;;;;34.03;12.93;;;9.00;99.90;;;;;;5019677;28;20453;-85
2023/02/04 10:16:17;;;;;;;26.77;9.10;;;9.10;99.90;;;;;;5019297;28;20453;-86
2023/02/04 10:18:57;;;;;;;25.67;9.93;;;9.10;99.90;;;;;;5018741;28;20477;-86
2023/02/04 10:21:31;;;;;;;36.30;9.90;;;9.20;99.90;;;;;;5015259;28;20477;-86
2023/02/04 10:24:07;;;;;;;30.57;9.93;;;9.10;99.90;;;;;;5002893;28;20485;-85
2023/02/04 10:26:37;;;;;;;27.90;9.70;;;9.00;99.90;;;;;;5013582;28;20457;-85
2023/02/04 10:29:06;;;;;;;33.97;10.57;;;9.00;99.90;;;;;;5021432;28;20481;-86
2023/02/04 10:31:37;;;;;;;33.43;11.00;;;9.00;99.90;;;;;;5009415;28;20450;-86
2023/02/04 10:34:10;;;;;;;38.20;12.80;;;9.00;99.90;;;;;;5000454;28;20430;-84
2023/02/04 10:36:46;;;;;;;38.63;12.53;;;9.10;99.90;;;;;;5017222;28;20450;-85
2023/02/04 10:39:17;;;;;;;29.23;11.40;;;9.20;99.90;;;;;;5029389;28;20473;-86
2023/02/04 10:44:38;;;;;;;41.93;13.63;;;9.60;99.90;;;;;;5026936;28;20832;-87
2023/02/04 10:47:17;;;;;;;31.03;12.77;;;10.10;99.90;;;;;;5010867;28;20454;-86
2023/02/04 10:49:55;;;;;;;34.13;14.53;;;10.40;99.90;;;;;;5001186;28;20462;-87
2023/02/04 10:52:39;;;;;;;42.77;11.80;;;10.90;99.90;;;;;;5002969;28;20458;-85
2023/02/04 10:55:10;;;;;;;33.77;12.57;;;11.40;99.90;;;;;;5002837;28;20930;-86
2023/02/04 10:57:40;;;;;;;37.77;15.20;;;11.40;99.90;;;;;;5016844;28;20449;-86
2023/02/04 11:00:16;;;;;;;35.50;13.20;;;11.30;99.90;;;;;;5023640;28;20461;-86
2023/02/04 11:02:52;;;;;;;23.10;12.40;;;11.30;99.90;;;;;;5009769;28;20457;-83
2023/02/04 11:05:25;;;;;;;31.13;12.27;;;11.40;99.90;;;;;;5002004;28;20501;-85
2023/02/04 11:07:56;;;;;;;29.33;10.90;;;11.50;99.90;;;;;;5001469;28;20482;-86
2023/02/04 11:10:25;;;;;;;29.43;11.77;;;11.30;99.90;;;;;;5018674;28;20468;-86
2023/02/04 11:13:04;;;;;;;34.87;11.73;;;11.60;99.90;;;;;;5021519;28;20504;-85
2023/02/04 11:15:45;;;;;;;25.90;10.23;;;12.00;99.90;;;;;;5021219;28;20481;-86
2023/02/04 11:18:28;;;;;;;18.40;7.67;;;12.40;99.90;;;;;;5020982;28;20560;-85
2023/02/04 11:20:57;;;;;;;37.93;9.47;;;12.40;99.90;;;;;;5019902;28;20454;-86
2023/02/04 11:23:34;;;;;;;35.80;9.33;;;12.40;99.90;;;;;;5004929;28;20968;-85
2023/02/04 11:26:21;;;;;;;24.10;9.17;;;12.60;99.90;;;;;;5002680;28;20554;-86
2023/02/04 11:28:57;;;;;;;30.40;8.80;;;12.60;99.90;;;;;;5018102;28;20492;-85
2023/02/04 11:31:42;;;;;;;42.07;9.50;;;12.60;99.90;;;;;;5020895;28;20480;-85
2023/02/04 11:34:28;;;;;;;38.27;8.33;;;12.30;99.90;;;;;;5019800;28;20532;-85
2023/02/04 11:37:14;;;;;;;28.87;7.40;;;12.20;99.90;;;;;;5022330;28;20456;-84
2023/02/04 11:39:42;;;;;;;33.53;7.50;;;12.10;99.90;;;;;;5001481;28;20481;-84
2023/02/04 11:42:22;;;;;;;29.97;5.83;;;12.10;99.90;;;;;;5004525;28;20486;-85
2023/02/04 11:44:51;;;;;;;25.03;5.20;;;11.80;99.90;;;;;;5006082;28;20544;-85
2023/02/04 11:47:18;;;;;;;20.43;5.23;;;11.80;99.90;;;;;;5015126;28;20903;-85
2023/02/04 11:49:53;;;;;;;33.17;6.60;;;11.70;99.90;;;;;;5005198;28;20458;-85
2023/02/04 11:52:24;;;;;;;23.20;5.23;;;11.30;99.90;;;;;;5013835;28;20457;-85
2023/02/04 11:54:59;;;;;;;28.67;6.10;;;11.30;99.90;;;;;;5016654;28;20515;-83
2023/02/04 11:57:28;;;;;;;37.03;7.70;;;11.40;99.90;;;;;;5005011;28;20743;-86
2023/02/04 11:59:55;;;;;;;26.70;7.33;;;11.60;99.90;;;;;;4998591;28;20462;-86
2023/02/04 12:02:25;;;;;;;20.97;5.50;;;11.70;99.90;;;;;;5018070;28;20477;-84
2023/02/04 12:04:56;;;;;;;22.37;5.53;;;11.70;99.90;;;;;;5018219;28;20484;-87
2023/02/04 12:07:28;;;;;;;20.53;5.33;;;11.90;99.90;;;;;;5017723;28;20503;-86
2023/02/04 12:09:55;;;;;;;24.23;6.23;;;12.00;99.90;;;;;;5018429;28;20461;-87
2023/02/04 12:12:30;;;;;;;24.00;5.13;;;11.90;99.90;;;;;;5017754;28;20557;-86
2023/02/04 12:15:03;;;;;;;20.07;5.33;;;11.70;99.90;;;;;;5018304;28;20449;-85
2023/02/04 12:17:34;;;;;;;22.90;6.13;;;11.70;99.90;;;;;;5017190;28;20496;-86
2023/02/04 12:20:02;;;;;;;19.07;4.67;;;11.60;99.90;;;;;;5019900;28;20508;-83
2023/02/04 12:22:29;;;;;;;21.80;6.10;;;11.60;99.90;;;;;;5017373;28;20892;-87
2023/02/04 12:24:56;;;;;;;30.63;5.90;;;11.50;99.90;;;;;;5017329;28;20568;-86
2023/02/04 12:27:27;;;;;;;20.50;4.67;;;11.70;99.90;;;;;;5016356;28;20874;-84
2023/02/04 12:29:57;;;;;;;16.40;5.27;;;11.80;99.90;;;;;;5017906;28;20459;-86
2023/02/04 12:32:27;;;;;;;18.37;5.63;;;11.90;99.90;;;;;;5018100;28;20461;-87
2023/02/04 12:34:56;;;;;;;28.33;4.90;;;11.70;99.90;;;;;;5008961;28;20847;-86
2023/02/04 12:37:27;;;;;;;23.43;5.03;;;12.10;99.90;;;;;;5019700;28;20445;-85